• Join FlightAware (Why Join?)
  • Login
  • US Flag 
11:53AM EDT


 

Airport Tracker/Info


-or-


 

Live Flight TrackerFlight Track Log ✈ QXE64 ✈ 01-May-2012 ✈ KSEA - KEAT

Flight Track Log - Related Links

Times and Time Zones

All times are in EDT time to prevent confusion due to time zone crossing. See the QXE64 flight status page for this flight to view local times or setup timezone preferences in your user account.

Time Position Orientation Groundspeed Altitude Reporting Facility
EDT Latitude Longitude Course Direction KTS MPH feet Rate Location/Type
08:04PM 47.4392 -122.3083 153° Southeast 152 175 1,400  Level Seattle Center
08:05PM 47.4117 -122.2875 101° East 166 191 2,800 2,040 Climbing Seattle Center
08:06PM 47.4017 -122.2097 85° East 212 244 5,200 1,860 Climbing Seattle Center
08:07PM 47.4089 -122.0919 85° East 259 298 6,900 1,500 Climbing Seattle Center
08:08PM 47.4158 -121.9781 85° East 283 326 8,300 1,020 Climbing Seattle Center
08:09PM 47.4219 -121.8625 84° East 287 330 9,000 1,560 Climbing Seattle Center
08:10PM 47.4294 -121.7494 88° East 282 325 11,500 2,280 Climbing Seattle Center
08:11PM 47.4314 -121.6403 93° East 275 316 13,700 1,620 Climbing Seattle Center
08:12PM 47.4275 -121.5233 91° East 287 330 14,900 600 Climbing Seattle Center
08:13PM 47.4256 -121.3897 92° East 333 383 15,000 60 Climbing Seattle Center
08:14PM 47.4222 -121.2239 90° East 341 392 15,100  Climbing Seattle Center
08:15PM 47.4214 -121.0881 92° East 336 387 15,100  Level Seattle Center
08:16PM 47.4186 -120.9553 92° East 331 381 15,100 -60 Level Seattle Center
08:17PM 47.4147 -120.8144 93° East 322 371 15,000 -60 Descending Seattle Center
08:18PM 47.4103 -120.6878 92° East 313 360 15,000  Level Seattle Center
08:19PM 47.4067 -120.5608 92° East 311 358 15,000  Level Seattle Center
08:20PM 47.4044 -120.4403 92° East 300 345 15,000  Level Seattle Center
08:21PM 47.4019 -120.3172 93° East 300 345 15,000 -360 Level Seattle Center
08:22PM 47.3969 -120.1936 92° East 302 348 14,300 -1,140 Descending Seattle Center
08:23PM 47.3944 -120.0739 93° East 296 341 12,700 -1,620 Descending Seattle Center
08:24PM 47.3906 -119.9639 117° Southeast 271 312 11,100 -1,440 Descending Seattle Center
08:25PM 47.3586 -119.8722 168° South 261 300 9,800 -1,380 Descending Seattle Center
08:26PM 47.2947 -119.8519 216° Southwest 240 276 8,400 -1,380 Descending Seattle Center
08:27PM 47.2419 -119.9094 270° West 247 284 7,100 -1,260 Descending Seattle Center
08:28PM 47.2419 -119.9994 321° Northwest 225 259 5,900 -1,320 Descending Seattle Center
08:29PM 47.2947 -120.0633 330° Northwest 198 228 4,500 -1,200 Descending Seattle Center
08:30PM 47.3325 -120.0950 323° Northwest 164 189 3,500 -840 Descending Seattle Center
08:31PM 47.3625 -120.1286 323° Northwest 137 158 2,900 -600 Descending Seattle Center